createdAt,value
2023-03-15T00:00:34.982Z,2.30
2023-03-15T00:04:54.799Z,2.30
2023-03-15T00:09:11.861Z,2.30
2023-03-15T00:13:29.366Z,2.30
2023-03-15T00:17:46.547Z,2.30
2023-03-15T00:22:03.625Z,2.20
2023-03-15T00:26:20.741Z,2.20
2023-03-15T00:30:37.824Z,2.10
2023-03-15T00:34:55.452Z,2.10
2023-03-15T00:39:12.529Z,2.10
2023-03-15T00:43:29.602Z,2.00
2023-03-15T00:47:53.294Z,1.90
2023-03-15T00:52:12.466Z,1.80
2023-03-15T00:56:32.822Z,1.80
2023-03-15T01:00:50.008Z,1.70
2023-03-15T01:05:08.833Z,1.70
2023-03-15T01:09:25.949Z,1.60
2023-03-15T01:13:43.484Z,1.50
2023-03-15T01:18:00.534Z,1.50
2023-03-15T01:22:18.318Z,1.40
2023-03-15T01:26:35.416Z,1.40
2023-03-15T01:30:53.050Z,1.40
2023-03-15T01:35:10.333Z,1.40
2023-03-15T01:39:27.399Z,1.40
2023-03-15T01:43:47.440Z,1.50
2023-03-15T01:48:05.053Z,1.50
2023-03-15T01:52:25.715Z,1.40
2023-03-15T01:56:50.697Z,1.40
2023-03-15T02:01:09.525Z,1.30
2023-03-15T02:05:34.032Z,1.20
2023-03-15T02:09:54.567Z,1.20
2023-03-15T02:14:14.337Z,1.00
2023-03-15T02:18:31.414Z,0.90
2023-03-15T02:23:08.441Z,0.70
2023-03-15T02:27:30.507Z,0.70
2023-03-15T02:31:47.744Z,0.60
2023-03-15T02:36:26.842Z,0.60
2023-03-15T02:40:44.607Z,0.50
2023-03-15T02:45:01.898Z,0.40
2023-03-15T02:49:22.677Z,0.40
2023-03-15T02:53:39.770Z,0.40
2023-03-15T02:57:56.951Z,0.40
2023-03-15T03:02:14.074Z,0.40
2023-03-15T03:06:33.197Z,0.40
2023-03-15T03:10:50.507Z,0.50
2023-03-15T03:15:08.142Z,0.50
2023-03-15T03:19:25.742Z,0.50
2023-03-15T03:23:46.209Z,0.50
2023-03-15T03:28:04.235Z,0.40
2023-03-15T03:32:21.429Z,0.30
2023-03-15T03:36:38.486Z,0.30
2023-03-15T03:40:55.540Z,0.20
2023-03-15T03:45:12.619Z,0.20
2023-03-15T03:49:29.766Z,0.10
2023-03-15T03:53:47.013Z,0.00
2023-03-15T03:58:04.249Z,0.00
2023-03-15T04:02:21.418Z,0.00
2023-03-15T04:06:38.570Z,-0.10
2023-03-15T04:10:57.596Z,-0.20
2023-03-15T04:15:14.796Z,-0.20
2023-03-15T04:19:31.859Z,-0.30
2023-03-15T04:23:49.559Z,-0.30
2023-03-15T04:28:10.527Z,-0.30
2023-03-15T04:32:27.624Z,-0.30
2023-03-15T04:36:44.740Z,-0.20
2023-03-15T04:41:01.783Z,0.00
2023-03-15T04:45:18.969Z,-0.10
2023-03-15T04:49:36.024Z,-0.10
2023-03-15T04:53:53.162Z,0.00
2023-03-15T04:58:10.203Z,0.10
2023-03-15T05:02:27.477Z,0.10
2023-03-15T05:06:44.522Z,0.20
2023-03-15T05:11:02.613Z,0.20
2023-03-15T05:15:19.678Z,0.00
2023-03-15T05:19:36.833Z,-0.10
2023-03-15T05:23:53.915Z,-0.10
2023-03-15T05:28:11.049Z,-0.10
2023-03-15T05:32:28.153Z,0.00
2023-03-15T05:36:45.518Z,-0.10
2023-03-15T05:41:02.612Z,-0.10
2023-03-15T05:45:19.862Z,-0.10
2023-03-15T05:49:36.908Z,0.00
2023-03-15T05:53:54.001Z,0.00
2023-03-15T05:58:11.037Z,0.00
2023-03-15T06:02:28.111Z,0.20
2023-03-15T06:06:45.369Z,0.30
2023-03-15T06:11:02.418Z,0.60
2023-03-15T06:15:20.192Z,0.90
2023-03-15T06:19:38.017Z,1.00
2023-03-15T06:23:55.160Z,1.10
2023-03-15T06:28:12.231Z,1.20
2023-03-15T06:32:29.578Z,1.30
2023-03-15T06:36:47.580Z,1.40
2023-03-15T06:41:05.117Z,1.50
2023-03-15T06:45:22.185Z,1.50
2023-03-15T06:49:39.658Z,1.60
2023-03-15T06:53:56.726Z,1.70
2023-03-15T06:58:14.404Z,1.80
2023-03-15T07:02:37.010Z,1.80
2023-03-15T07:06:55.112Z,1.80
2023-03-15T07:11:13.553Z,1.90
2023-03-15T07:15:30.785Z,1.90
2023-03-15T07:19:56.332Z,1.80
2023-03-15T07:24:14.015Z,1.90
2023-03-15T07:28:31.149Z,1.90
2023-03-15T07:32:48.615Z,1.90
2023-03-15T07:37:05.812Z,2.00
2023-03-15T07:41:22.903Z,2.00
2023-03-15T07:45:40.233Z,2.10
2023-03-15T07:49:57.295Z,2.20
2023-03-15T07:54:14.334Z,2.30
2023-03-15T07:58:31.527Z,2.60
2023-03-15T08:02:48.875Z,2.70
2023-03-15T08:07:06.458Z,2.90
2023-03-15T08:11:23.645Z,2.90
2023-03-15T08:15:41.553Z,2.80
2023-03-15T08:19:58.638Z,2.80
2023-03-15T08:24:15.797Z,2.80
2023-03-15T08:28:32.908Z,2.80
2023-03-15T08:32:54.188Z,2.80
2023-03-15T08:37:11.938Z,2.60
2023-03-15T08:41:29.153Z,2.50
2023-03-15T08:46:00.103Z,2.70
2023-03-15T08:50:19.123Z,2.90
2023-03-15T08:54:36.339Z,3.30
2023-03-15T08:58:53.390Z,3.30
2023-03-15T09:03:11.340Z,3.40
2023-03-15T09:07:28.395Z,3.40
2023-03-15T09:11:45.499Z,3.40
2023-03-15T09:16:03.450Z,3.50
2023-03-15T09:20:22.884Z,3.60
2023-03-15T09:24:40.098Z,3.70
2023-03-15T09:28:57.221Z,3.50
2023-03-15T09:33:14.821Z,3.50
2023-03-15T09:37:32.526Z,3.80
2023-03-15T09:41:56.236Z,4.10
2023-03-15T09:46:35.521Z,4.30
2023-03-15T09:50:54.554Z,4.70
2023-03-15T09:55:22.918Z,4.50
2023-03-15T09:59:45.161Z,4.70
2023-03-15T10:04:10.145Z,4.60
2023-03-15T10:08:27.345Z,4.30
2023-03-15T10:12:51.498Z,4.60
2023-03-15T10:17:13.976Z,4.60
2023-03-15T10:21:38.304Z,4.50
2023-03-15T10:25:55.841Z,4.70
2023-03-15T10:30:21.705Z,4.80
2023-03-15T10:34:38.763Z,4.70
2023-03-15T10:38:57.126Z,4.90
2023-03-15T10:43:34.449Z,5.00
2023-03-15T10:47:59.565Z,4.90
2023-03-15T10:52:36.827Z,4.60
2023-03-15T10:57:14.548Z,4.80
2023-03-15T11:01:37.457Z,4.90
2023-03-15T11:05:57.867Z,4.90
2023-03-15T11:10:21.544Z,4.90
2023-03-15T11:14:45.194Z,4.30
2023-03-15T11:19:03.551Z,3.80
2023-03-15T11:23:25.126Z,3.90
2023-03-15T11:27:43.537Z,4.10
2023-03-15T11:32:03.616Z,4.40
2023-03-15T11:36:23.124Z,4.60
2023-03-15T11:40:49.882Z,5.20
2023-03-15T11:45:20.429Z,5.20
2023-03-15T11:49:50.345Z,5.30
2023-03-15T11:54:15.856Z,5.40
2023-03-15T11:58:42.376Z,5.20
2023-03-15T12:03:20.788Z,4.80
2023-03-15T12:07:56.210Z,4.40
2023-03-15T12:12:25.326Z,4.10
2023-03-15T12:16:45.482Z,3.50
2023-03-15T12:21:18.463Z,3.00
2023-03-15T12:25:48.940Z,2.30
2023-03-15T12:30:23.600Z,1.90
2023-03-15T12:34:52.443Z,1.80
2023-03-15T12:39:15.278Z,1.70
2023-03-15T12:43:43.997Z,1.90
2023-03-15T12:48:00.997Z,2.30
2023-03-15T12:52:39.269Z,3.40
2023-03-15T12:57:05.628Z,4.50
2023-03-15T13:01:25.679Z,4.30
2023-03-15T13:06:08.576Z,4.40
2023-03-15T13:10:46.034Z,4.10
2023-03-15T13:15:09.380Z,4.10
2023-03-15T13:19:30.547Z,4.10
2023-03-15T13:23:54.372Z,3.90
2023-03-15T13:28:27.312Z,4.40
2023-03-15T13:32:44.581Z,4.10
2023-03-15T13:37:04.858Z,4.20
2023-03-15T13:41:29.154Z,4.40
2023-03-15T13:45:46.619Z,4.90
2023-03-15T13:50:06.125Z,5.00
2023-03-15T13:54:33.124Z,4.60
2023-03-15T13:58:51.951Z,3.50
2023-03-15T14:03:16.928Z,2.40
2023-03-15T14:07:40.166Z,2.30
2023-03-15T14:12:02.522Z,2.60
2023-03-15T14:16:57.376Z,2.90
2023-03-15T14:21:21.958Z,3.40
2023-03-15T14:25:39.342Z,3.20
2023-03-15T14:30:01.814Z,3.40
2023-03-15T14:34:37.120Z,3.20
2023-03-15T14:38:56.936Z,3.30
2023-03-15T14:43:14.559Z,3.60
2023-03-15T14:47:32.054Z,3.50
2023-03-15T14:52:01.359Z,3.50
2023-03-15T14:56:19.874Z,3.50
2023-03-15T15:00:37.301Z,3.80
2023-03-15T15:04:54.782Z,4.20
2023-03-15T15:09:11.835Z,4.30
2023-03-15T15:13:30.354Z,4.50
2023-03-15T15:17:48.590Z,4.60
2023-03-15T15:22:05.568Z,4.80
2023-03-15T15:26:26.125Z,4.90
2023-03-15T15:30:43.220Z,4.90
2023-03-15T15:35:00.376Z,4.80
2023-03-15T15:39:29.568Z,4.80
2023-03-15T15:43:46.644Z,4.70
2023-03-15T15:48:05.992Z,4.40
2023-03-15T15:52:23.043Z,4.30
2023-03-15T15:56:51.742Z,4.20
2023-03-15T16:01:13.663Z,4.20
2023-03-15T16:05:32.822Z,4.10
2023-03-15T16:09:55.954Z,4.30
2023-03-15T16:14:14.026Z,4.50
2023-03-15T16:18:32.107Z,4.50
2023-03-15T16:22:53.167Z,4.30
2023-03-15T16:27:17.597Z,4.30
2023-03-15T16:31:35.196Z,4.40
2023-03-15T16:35:53.553Z,4.10
2023-03-15T16:40:21.412Z,4.10
2023-03-15T16:44:38.505Z,4.00
2023-03-15T16:48:55.561Z,3.80
2023-03-15T16:53:13.237Z,3.60
2023-03-15T16:57:30.562Z,3.60
2023-03-15T17:01:49.329Z,3.50
2023-03-15T17:06:13.946Z,3.30
2023-03-15T17:10:32.354Z,3.20
2023-03-15T17:14:50.101Z,3.30
2023-03-15T17:19:14.030Z,3.00
2023-03-15T17:23:32.031Z,2.80
2023-03-15T17:27:50.571Z,2.60
2023-03-15T17:32:11.825Z,2.40
2023-03-15T17:36:34.584Z,2.20
2023-03-15T17:40:53.448Z,2.10
2023-03-15T17:45:18.792Z,2.00
2023-03-15T17:49:35.915Z,1.90
2023-03-15T17:53:53.548Z,1.70
2023-03-15T17:58:16.080Z,1.80
2023-03-15T18:02:35.526Z,1.80
2023-03-15T18:06:53.924Z,1.80
2023-03-15T18:11:33.772Z,1.80
2023-03-15T18:15:51.222Z,1.90
2023-03-15T18:20:13.445Z,2.00
2023-03-15T18:24:31.709Z,2.00
2023-03-15T18:28:49.363Z,1.90
2023-03-15T18:33:06.928Z,1.80
2023-03-15T18:37:24.066Z,1.80
2023-03-15T18:41:41.150Z,1.80
2023-03-15T18:45:58.300Z,1.70
2023-03-15T18:50:16.434Z,1.50
2023-03-15T18:54:33.496Z,1.40
2023-03-15T18:58:51.697Z,1.20
2023-03-15T19:03:08.799Z,1.10
2023-03-15T19:07:27.653Z,1.00
2023-03-15T19:11:44.721Z,0.80
2023-03-15T19:16:02.136Z,0.70
2023-03-15T19:20:23.368Z,0.60
2023-03-15T19:24:40.567Z,0.40
2023-03-15T19:28:57.633Z,0.30
2023-03-15T19:33:14.707Z,0.30
2023-03-15T19:37:31.853Z,0.20
2023-03-15T19:41:48.961Z,0.10
2023-03-15T19:46:07.898Z,0.10
2023-03-15T19:50:25.056Z,0.10
2023-03-15T19:54:42.104Z,0.00
2023-03-15T19:58:59.173Z,0.00
2023-03-15T20:03:16.216Z,0.00
2023-03-15T20:07:33.334Z,0.00
2023-03-15T20:11:50.700Z,0.00
2023-03-15T20:16:08.398Z,0.00
2023-03-15T20:20:25.656Z,-0.10
2023-03-15T20:24:44.161Z,-0.10
2023-03-15T20:29:01.328Z,-0.20
2023-03-15T20:33:18.379Z,-0.30
2023-03-15T20:37:37.432Z,-0.50
2023-03-15T20:41:54.563Z,-0.60
2023-03-15T20:46:13.524Z,-0.60
2023-03-15T20:50:30.914Z,-0.60
2023-03-15T20:54:48.001Z,-0.70
2023-03-15T20:59:05.043Z,-0.70
2023-03-15T21:03:22.461Z,-0.80
2023-03-15T21:07:41.496Z,-0.80
2023-03-15T21:12:01.744Z,-0.90
2023-03-15T21:16:18.849Z,-0.90
2023-03-15T21:20:35.921Z,-1.00
2023-03-15T21:24:56.204Z,-1.00
2023-03-15T21:29:13.476Z,-1.00
2023-03-15T21:33:31.121Z,-1.00
2023-03-15T21:37:48.360Z,-1.00
2023-03-15T21:42:05.658Z,-1.10
2023-03-15T21:46:23.816Z,-1.00
2023-03-15T21:50:41.539Z,-1.00
2023-03-15T21:54:58.668Z,-1.00
2023-03-15T21:59:15.748Z,-1.00
2023-03-15T22:03:34.474Z,-1.00
2023-03-15T22:07:51.679Z,-1.00
2023-03-15T22:12:09.497Z,-1.00
2023-03-15T22:16:26.650Z,-1.00
2023-03-15T22:20:46.496Z,-0.90
2023-03-15T22:25:03.693Z,-1.20
2023-03-15T22:29:20.773Z,-1.20
2023-03-15T22:33:37.845Z,-1.20
2023-03-15T22:37:56.838Z,-1.30
2023-03-15T22:42:13.920Z,-1.30
2023-03-15T22:46:34.884Z,-1.20
2023-03-15T22:51:03.626Z,-1.30
2023-03-15T22:55:21.114Z,-1.30
2023-03-15T22:59:41.019Z,-1.40
2023-03-15T23:03:58.057Z,-1.30
2023-03-15T23:08:15.148Z,-1.40
2023-03-15T23:12:36.351Z,-1.50
2023-03-15T23:16:53.850Z,-1.40
2023-03-15T23:21:14.381Z,-1.40
2023-03-15T23:25:36.037Z,-1.50
2023-03-15T23:29:54.760Z,-1.50
2023-03-15T23:34:13.005Z,-1.50
2023-03-15T23:38:30.150Z,-1.60
2023-03-15T23:42:47.489Z,-1.60
2023-03-15T23:47:06.412Z,-1.70
2023-03-15T23:51:23.766Z,-1.70
2023-03-15T23:55:41.235Z,-1.70
2023-03-15T23:59:58.351Z,-1.80
